Saturday, January 19, 2019, 7:50 PM EST
Back to Local

KPSM, Pease Air Force Base / Portsmouth

Location: Portsmouth, NH, United States Lat: 43.083
Local Time: 7:50 PM EST ( 0:50 GMT) Lon: -70.817
Time Zone: US/Eastern Elev: 101 ft

Show me the last for .
Show Decoded

2019-01-19 18:56 METAR KPSM 192356Z 07011KT 7SM -SN BKN026 BKN035 OVC049 M04/M09 A3023 RMK AO2A
                 SLP241 P0000 60000 T10381094 11020 21040 58014 =
2019-01-19 18:40 METAR KPSM 192340Z 08012G17KT 6SM -SN FEW027 OVC034 M04/M10 A3023 RMK AO2A =
2019-01-19 17:56 METAR KPSM 192256Z 07008KT 6SM -SN SCT027 OVC036 M04/M09 A3027 RMK AO2A SLP254
                 P0000 T10381094 =
2019-01-19 17:17 METAR KPSM 192217Z 08008KT 4SM -SN OVC035 M04/M08 A3027 RMK AO2A =
2019-01-19 16:56 METAR KPSM 192156Z 08010KT 3SM -SN SCT026 OVC035 M04/M08 A3028 RMK AO2A SLP258
                 P0000 T10381085 =
2019-01-19 16:20 METAR KPSM 192120Z 08008KT 3SM -SN BKN025 OVC035 M03/M09 A3028 RMK AO2A =
2019-01-19 16:10 METAR KPSM 192110Z 08006KT 4SM -SN SCT026 BKN036 OVC045 M03/M09 A3028 RMK AO2A =
2019-01-19 15:56 METAR KPSM 192056Z 08007KT 7SM -SN BKN026 OVC034 M03/M09 A3027 RMK AO2A SNB42
                 SLP254 P0000 60000 T10321089 53002 =
2019-01-19 15:42 METAR KPSM 192042Z 08008KT 7SM -SN BKN026 OVC032 M03/M09 A3027 RMK AO2A =
2019-01-19 15:22 METAR KPSM 192022Z AUTO 08006KT 10SM -UP FEW023 BKN030 OVC040 M03/M09 A3025 RMK
                 AO2 UPB22 SLP247 =
2019-01-19 14:56 METAR KPSM 191956Z 12008KT 10SM SCT024 SCT030 OVC040 M03/M09 A3024 RMK AO2A
                 SLP244 T10271092 =
2019-01-19 13:56 METAR KPSM 191856Z 11009KT 10SM BKN042 OVC050 M02/M11 A3025 RMK AO2A SLP247
                 T10241112 =
2019-01-19 12:56 METAR KPSM 191756Z 00000KT 10SM BKN042 BKN090 OVC250 M02/M14 A3027 RMK AO2A
                 SLP254 T10211145 11019 21064 58014 =
2019-01-19 11:56 METAR KPSM 191656Z 00000KT 10SM BKN044 BKN095 OVC250 M02/M14 A3030 RMK AO2A
                 SLP264 T10231144 =
2019-01-19 10:56 METAR KPSM 191556Z 01003KT 10SM SCT046 BKN110 BKN250 M03/M14 A3032 RMK AO2A
                 SLP273 T10271142 =
2019-01-19 09:56 METAR KPSM 191456Z 35005KT 10SM FEW047 SCT110 BKN250 M03/M13 A3031 RMK AO2A
                 SLP268 T10281134 51019 =
2019-01-19 08:56 METAR KPSM 191356Z 34008KT 10SM FEW045 BKN120 BKN250 M03/M13 A3031 RMK AO2A
                 SLPNO T10331128 =
2019-01-19 07:56 METAR KPSM 191256Z 32005KT 10SM FEW045 SCT120 BKN250 M06/M12 A3027 RMK AO2A
                 SLPNO T10641121 =
2019-01-19 06:56 METAR KPSM 191156Z 35007KT 10SM BKN043 BKN200 M04/M12 A3025 RMK AO2A SLPNO
                 T10441119 11014 21044 52028 =
2019-01-19 05:56 METAR KPSM 191056Z 32004KT 10SM BKN040 BKN200 M04/M10 A3022 RMK AO2A SLP237
                 T10381096 =
2019-01-19 04:56 METAR KPSM 190956Z 32006KT 10SM BKN040 BKN250 M03/M09 A3020 RMK AO2A SLP230
                 T10331091 =
2019-01-19 03:56 METAR KPSM 190856Z 30007KT 10SM SCT040 BKN250 M03/M08 A3017 RMK AO2A SLP220
                 T10321085 52025 =
2019-01-19 02:56 METAR KPSM 190756Z 29006KT 10SM SCT040 BKN250 M04/M08 A3014 RMK AO2A SLP210
                 T10361083 =
2019-01-19 01:56 METAR KPSM 190656Z 22003KT 10SM FEW040 BKN250 M02/M07 A3013 RMK AO2A SLP206
                 T10191068 =
2019-01-19 00:56 METAR KPSM 190556Z 30006KT 10SM FEW035 BKN250 M01/M06 A3010 RMK AO2A SLP196
                 T10141064 11001 21016 52020 =
2019-01-18 23:56 METAR KPSM 190456Z 28004KT 10SM SCT035 BKN250 00/M06 A3008 RMK AO2A SLP189
                 T10051057 400291093 =
2019-01-18 22:56 METAR KPSM 190356Z 27004KT 10SM FEW040 BKN250 M01/M05 A3007 RMK AO2A SLP186
                 T10071049 =
2019-01-18 21:56 METAR KPSM 190256Z 25005KT 10SM BKN039 OVC250 00/M04 A3004 RMK AO2A SLP176
                 T10021041 52015 =
2019-01-18 20:56 METAR KPSM 190156Z 23004KT 10SM FEW035 SCT060 BKN250 00/M05 A3003 RMK AO2A
                 SLP173 T10041047 =
2019-01-18 19:56 METAR KPSM 190056Z 00000KT 10SM FEW035 BKN060 01/M05 A3002 RMK AO2A SLP169
                 T00071047 =

Support USWX by starting your Amazon purchase here.